sensor_id;sensor_type;location;lat;lon;timestamp;temperature;humidity
17851;DHT22;9051;51.548;14.348;2023-02-01T00:00:53;5.90;99.90
17851;DHT22;9051;51.548;14.348;2023-02-01T00:03:26;5.90;99.90
17851;DHT22;9051;51.548;14.348;2023-02-01T00:05:58;5.90;99.90
17851;DHT22;9051;51.548;14.348;2023-02-01T00:08:30;5.90;99.90
17851;DHT22;9051;51.548;14.348;2023-02-01T00:11:05;5.80;99.90
17851;DHT22;9051;51.548;14.348;2023-02-01T00:13:40;5.80;99.90
17851;DHT22;9051;51.548;14.348;2023-02-01T00:16:13;5.80;99.90
17851;DHT22;9051;51.548;14.348;2023-02-01T00:18:48;5.90;99.90
17851;DHT22;9051;51.548;14.348;2023-02-01T00:21:21;5.80;99.90
17851;DHT22;9051;51.548;14.348;2023-02-01T00:23:53;5.70;99.90
17851;DHT22;9051;51.548;14.348;2023-02-01T00:26:31;5.70;99.90
17851;DHT22;9051;51.548;14.348;2023-02-01T00:29:05;5.70;99.90
17851;DHT22;9051;51.548;14.348;2023-02-01T00:31:38;5.70;99.90
17851;DHT22;9051;51.548;14.348;2023-02-01T00:34:12;5.70;99.90
17851;DHT22;9051;51.548;14.348;2023-02-01T00:36:45;5.70;99.90
17851;DHT22;9051;51.548;14.348;2023-02-01T00:39:17;5.60;99.90
17851;DHT22;9051;51.548;14.348;2023-02-01T00:41:51;5.70;99.90
17851;DHT22;9051;51.548;14.348;2023-02-01T00:44:22;5.60;99.90
17851;DHT22;9051;51.548;14.348;2023-02-01T00:46:55;5.60;99.90
17851;DHT22;9051;51.548;14.348;2023-02-01T00:49:27;5.60;99.90
17851;DHT22;9051;51.548;14.348;2023-02-01T00:51:59;5.70;99.90
17851;DHT22;9051;51.548;14.348;2023-02-01T00:54:31;5.70;99.90
17851;DHT22;9051;51.548;14.348;2023-02-01T00:57:05;5.60;99.90
17851;DHT22;9051;51.548;14.348;2023-02-01T00:59:37;5.70;99.90
17851;DHT22;9051;51.548;14.348;2023-02-01T01:02:09;5.60;99.90
17851;DHT22;9051;51.548;14.348;2023-02-01T01:04:44;5.70;99.90
17851;DHT22;9051;51.548;14.348;2023-02-01T01:07:16;5.60;99.90
17851;DHT22;9051;51.548;14.348;2023-02-01T01:09:50;5.60;99.90
17851;DHT22;9051;51.548;14.348;2023-02-01T01:12:23;5.50;99.90
17851;DHT22;9051;51.548;14.348;2023-02-01T01:14:55;5.50;99.90
17851;DHT22;9051;51.548;14.348;2023-02-01T01:17:27;5.50;99.90
17851;DHT22;9051;51.548;14.348;2023-02-01T01:19:59;5.50;99.90
17851;DHT22;9051;51.548;14.348;2023-02-01T01:22:31;5.50;99.90
17851;DHT22;9051;51.548;14.348;2023-02-01T01:25:04;5.40;99.90
17851;DHT22;9051;51.548;14.348;2023-02-01T01:27:37;5.40;99.90
17851;DHT22;9051;51.548;14.348;2023-02-01T01:30:10;5.50;99.90
17851;DHT22;9051;51.548;14.348;2023-02-01T01:32:44;5.50;99.90
17851;DHT22;9051;51.548;14.348;2023-02-01T01:35:16;5.50;99.90
17851;DHT22;9051;51.548;14.348;2023-02-01T01:37:49;5.50;99.90
17851;DHT22;9051;51.548;14.348;2023-02-01T01:40:21;5.50;99.90
17851;DHT22;9051;51.548;14.348;2023-02-01T01:42:56;5.50;99.90
17851;DHT22;9051;51.548;14.348;2023-02-01T01:45:30;5.50;99.90
17851;DHT22;9051;51.548;14.348;2023-02-01T01:48:07;5.50;99.90
17851;DHT22;9051;51.548;14.348;2023-02-01T01:50:44;5.40;99.90
17851;DHT22;9051;51.548;14.348;2023-02-01T01:53:21;5.40;99.90
17851;DHT22;9051;51.548;14.348;2023-02-01T01:55:56;5.40;99.90
17851;DHT22;9051;51.548;14.348;2023-02-01T01:58:32;5.40;99.90
17851;DHT22;9051;51.548;14.348;2023-02-01T02:01:05;5.40;99.90
17851;DHT22;9051;51.548;14.348;2023-02-01T02:03:40;5.40;99.90
17851;DHT22;9051;51.548;14.348;2023-02-01T02:06:21;5.30;99.90
17851;DHT22;9051;51.548;14.348;2023-02-01T02:08:55;5.40;99.90
17851;DHT22;9051;51.548;14.348;2023-02-01T02:11:27;5.40;99.90
17851;DHT22;9051;51.548;14.348;2023-02-01T02:14:01;5.40;99.90
17851;DHT22;9051;51.548;14.348;2023-02-01T02:16:48;5.40;99.90
17851;DHT22;9051;51.548;14.348;2023-02-01T02:22:58;5.30;99.90
17851;DHT22;9051;51.548;14.348;2023-02-01T02:32:58;5.20;99.90
17851;DHT22;9051;51.548;14.348;2023-02-01T02:35:40;5.20;99.90
17851;DHT22;9051;51.548;14.348;2023-02-01T02:38:17;5.10;99.90
17851;DHT22;9051;51.548;14.348;2023-02-01T02:41:03;5.10;99.90
17851;DHT22;9051;51.548;14.348;2023-02-01T02:43:46;5.10;99.90
17851;DHT22;9051;51.548;14.348;2023-02-01T02:46:50;5.10;99.90
17851;DHT22;9051;51.548;14.348;2023-02-01T02:49:46;5.00;99.90
17851;DHT22;9051;51.548;14.348;2023-02-01T02:52:47;5.00;99.90
17851;DHT22;9051;51.548;14.348;2023-02-01T02:55:38;5.10;99.90
17851;DHT22;9051;51.548;14.348;2023-02-01T02:58:12;5.00;99.90
17851;DHT22;9051;51.548;14.348;2023-02-01T03:01:03;5.10;99.90
17851;DHT22;9051;51.548;14.348;2023-02-01T03:03:54;5.10;99.90
17851;DHT22;9051;51.548;14.348;2023-02-01T03:06:42;5.20;99.90
17851;DHT22;9051;51.548;14.348;2023-02-01T03:09:19;5.00;99.90
17851;DHT22;9051;51.548;14.348;2023-02-01T03:11:56;5.00;99.90
17851;DHT22;9051;51.548;14.348;2023-02-01T03:14:52;4.90;99.90
17851;DHT22;9051;51.548;14.348;2023-02-01T03:17:30;5.00;99.90
17851;DHT22;9051;51.548;14.348;2023-02-01T03:20:06;5.00;99.90
17851;DHT22;9051;51.548;14.348;2023-02-01T03:22:42;5.00;99.90
17851;DHT22;9051;51.548;14.348;2023-02-01T03:25:20;5.00;99.90
17851;DHT22;9051;51.548;14.348;2023-02-01T03:27:57;5.00;99.90
17851;DHT22;9051;51.548;14.348;2023-02-01T03:30:35;5.00;99.90
17851;DHT22;9051;51.548;14.348;2023-02-01T03:33:11;5.00;99.90
17851;DHT22;9051;51.548;14.348;2023-02-01T03:35:59;5.00;99.90
17851;DHT22;9051;51.548;14.348;2023-02-01T03:38:36;5.00;99.90
17851;DHT22;9051;51.548;14.348;2023-02-01T03:41:18;5.00;99.90
17851;DHT22;9051;51.548;14.348;2023-02-01T03:43:58;4.90;99.90
17851;DHT22;9051;51.548;14.348;2023-02-01T03:46:35;4.90;99.90
17851;DHT22;9051;51.548;14.348;2023-02-01T03:49:11;4.90;99.90
17851;DHT22;9051;51.548;14.348;2023-02-01T03:51:44;4.90;99.90
17851;DHT22;9051;51.548;14.348;2023-02-01T03:54:18;4.90;99.90
17851;DHT22;9051;51.548;14.348;2023-02-01T03:56:53;4.90;99.90
17851;DHT22;9051;51.548;14.348;2023-02-01T03:59:27;4.90;99.90
17851;DHT22;9051;51.548;14.348;2023-02-01T04:01:59;4.90;99.90
17851;DHT22;9051;51.548;14.348;2023-02-01T04:04:32;4.90;99.90
17851;DHT22;9051;51.548;14.348;2023-02-01T04:07:05;4.90;99.90
17851;DHT22;9051;51.548;14.348;2023-02-01T04:09:37;4.90;99.90
17851;DHT22;9051;51.548;14.348;2023-02-01T04:12:11;4.90;99.90
17851;DHT22;9051;51.548;14.348;2023-02-01T04:14:43;4.90;99.90
17851;DHT22;9051;51.548;14.348;2023-02-01T04:17:15;4.90;99.90
17851;DHT22;9051;51.548;14.348;2023-02-01T04:19:47;5.00;99.90
17851;DHT22;9051;51.548;14.348;2023-02-01T04:22:19;4.90;99.90
17851;DHT22;9051;51.548;14.348;2023-02-01T04:24:50;4.90;99.90
17851;DHT22;9051;51.548;14.348;2023-02-01T04:27:24;5.00;99.90
17851;DHT22;9051;51.548;14.348;2023-02-01T04:29:56;5.10;99.90
17851;DHT22;9051;51.548;14.348;2023-02-01T04:32:28;5.10;99.90
17851;DHT22;9051;51.548;14.348;2023-02-01T04:35:00;5.10;99.90
17851;DHT22;9051;51.548;14.348;2023-02-01T04:37:32;5.10;99.90
17851;DHT22;9051;51.548;14.348;2023-02-01T04:40:05;5.10;99.90
17851;DHT22;9051;51.548;14.348;2023-02-01T04:42:38;5.10;99.90
17851;DHT22;9051;51.548;14.348;2023-02-01T04:45:10;5.10;99.90
17851;DHT22;9051;51.548;14.348;2023-02-01T04:47:42;5.10;99.90
17851;DHT22;9051;51.548;14.348;2023-02-01T04:50:15;5.10;99.90
17851;DHT22;9051;51.548;14.348;2023-02-01T04:52:47;5.10;99.90
17851;DHT22;9051;51.548;14.348;2023-02-01T04:55:19;5.20;99.90
17851;DHT22;9051;51.548;14.348;2023-02-01T04:57:52;5.20;99.90
17851;DHT22;9051;51.548;14.348;2023-02-01T05:00:24;5.30;99.90
17851;DHT22;9051;51.548;14.348;2023-02-01T05:02:56;5.20;99.90
17851;DHT22;9051;51.548;14.348;2023-02-01T05:05:28;5.20;99.90
17851;DHT22;9051;51.548;14.348;2023-02-01T05:08:00;5.30;99.90
17851;DHT22;9051;51.548;14.348;2023-02-01T05:10:32;5.40;99.90
17851;DHT22;9051;51.548;14.348;2023-02-01T05:13:05;5.40;99.90
17851;DHT22;9051;51.548;14.348;2023-02-01T05:15:56;5.40;99.90
17851;DHT22;9051;51.548;14.348;2023-02-01T05:18:28;5.40;99.90
17851;DHT22;9051;51.548;14.348;2023-02-01T05:21:00;5.40;99.90
17851;DHT22;9051;51.548;14.348;2023-02-01T05:23:32;5.50;99.90
17851;DHT22;9051;51.548;14.348;2023-02-01T05:26:24;5.50;99.90
17851;DHT22;9051;51.548;14.348;2023-02-01T05:28:58;5.50;99.90
17851;DHT22;9051;51.548;14.348;2023-02-01T05:31:30;5.50;99.90
17851;DHT22;9051;51.548;14.348;2023-02-01T05:34:02;5.50;99.90
17851;DHT22;9051;51.548;14.348;2023-02-01T05:36:34;5.50;99.90
17851;DHT22;9051;51.548;14.348;2023-02-01T05:39:06;5.50;99.90
17851;DHT22;9051;51.548;14.348;2023-02-01T05:41:38;5.50;99.90
17851;DHT22;9051;51.548;14.348;2023-02-01T05:44:11;5.50;99.90
17851;DHT22;9051;51.548;14.348;2023-02-01T05:46:43;5.50;99.90
17851;DHT22;9051;51.548;14.348;2023-02-01T05:49:15;5.50;99.90
17851;DHT22;9051;51.548;14.348;2023-02-01T05:51:47;5.50;99.90
17851;DHT22;9051;51.548;14.348;2023-02-01T05:54:19;5.50;99.90
17851;DHT22;9051;51.548;14.348;2023-02-01T05:56:51;5.50;99.90
17851;DHT22;9051;51.548;14.348;2023-02-01T05:59:25;5.50;99.90
17851;DHT22;9051;51.548;14.348;2023-02-01T06:01:57;5.40;99.90
17851;DHT22;9051;51.548;14.348;2023-02-01T06:04:28;5.40;99.90
17851;DHT22;9051;51.548;14.348;2023-02-01T06:07:00;5.40;99.90
17851;DHT22;9051;51.548;14.348;2023-02-01T06:09:32;5.30;99.90
17851;DHT22;9051;51.548;14.348;2023-02-01T06:12:05;5.30;99.90
17851;DHT22;9051;51.548;14.348;2023-02-01T06:14:39;5.30;99.90
17851;DHT22;9051;51.548;14.348;2023-02-01T06:17:12;5.30;99.90
17851;DHT22;9051;51.548;14.348;2023-02-01T06:19:44;5.40;99.90
17851;DHT22;9051;51.548;14.348;2023-02-01T06:22:16;5.40;99.90
17851;DHT22;9051;51.548;14.348;2023-02-01T06:24:48;5.30;99.90
17851;DHT22;9051;51.548;14.348;2023-02-01T06:27:20;5.40;99.90
17851;DHT22;9051;51.548;14.348;2023-02-01T06:29:53;5.40;99.90
17851;DHT22;9051;51.548;14.348;2023-02-01T06:32:26;5.30;99.90
17851;DHT22;9051;51.548;14.348;2023-02-01T06:34:58;5.30;99.90
17851;DHT22;9051;51.548;14.348;2023-02-01T06:37:31;5.30;99.90
17851;DHT22;9051;51.548;14.348;2023-02-01T06:40:03;5.30;99.90
17851;DHT22;9051;51.548;14.348;2023-02-01T06:42:35;5.30;99.90
17851;DHT22;9051;51.548;14.348;2023-02-01T06:45:10;5.20;99.90
17851;DHT22;9051;51.548;14.348;2023-02-01T06:47:42;5.20;99.90
17851;DHT22;9051;51.548;14.348;2023-02-01T06:50:14;5.20;99.90
17851;DHT22;9051;51.548;14.348;2023-02-01T06:52:46;5.20;99.90
17851;DHT22;9051;51.548;14.348;2023-02-01T06:55:18;5.20;99.90
17851;DHT22;9051;51.548;14.348;2023-02-01T06:57:53;5.20;99.90
17851;DHT22;9051;51.548;14.348;2023-02-01T07:00:28;5.20;99.90
17851;DHT22;9051;51.548;14.348;2023-02-01T07:03:00;5.20;99.90
17851;DHT22;9051;51.548;14.348;2023-02-01T07:05:32;5.30;99.90
17851;DHT22;9051;51.548;14.348;2023-02-01T07:08:04;5.30;99.90
17851;DHT22;9051;51.548;14.348;2023-02-01T07:10:37;5.30;99.90
17851;DHT22;9051;51.548;14.348;2023-02-01T07:13:09;5.40;99.90
17851;DHT22;9051;51.548;14.348;2023-02-01T07:15:42;5.30;99.90
17851;DHT22;9051;51.548;14.348;2023-02-01T07:18:14;5.30;99.90
17851;DHT22;9051;51.548;14.348;2023-02-01T07:20:50;5.30;99.90
17851;DHT22;9051;51.548;14.348;2023-02-01T07:23:23;5.30;99.90
17851;DHT22;9051;51.548;14.348;2023-02-01T07:25:56;5.30;99.90
17851;DHT22;9051;51.548;14.348;2023-02-01T07:28:30;5.30;99.90
17851;DHT22;9051;51.548;14.348;2023-02-01T07:31:04;5.30;99.90
17851;DHT22;9051;51.548;14.348;2023-02-01T07:33:37;5.30;99.90
17851;DHT22;9051;51.548;14.348;2023-02-01T07:36:12;5.30;99.90
17851;DHT22;9051;51.548;14.348;2023-02-01T07:38:44;5.40;99.90
17851;DHT22;9051;51.548;14.348;2023-02-01T07:41:17;5.40;99.90
17851;DHT22;9051;51.548;14.348;2023-02-01T07:43:52;5.40;99.90
17851;DHT22;9051;51.548;14.348;2023-02-01T07:46:25;5.50;99.90
17851;DHT22;9051;51.548;14.348;2023-02-01T07:48:57;5.50;99.90
17851;DHT22;9051;51.548;14.348;2023-02-01T07:51:29;5.40;99.90
17851;DHT22;9051;51.548;14.348;2023-02-01T07:54:01;5.30;99.90
17851;DHT22;9051;51.548;14.348;2023-02-01T07:56:33;5.20;99.90
17851;DHT22;9051;51.548;14.348;2023-02-01T07:59:05;5.10;99.90
17851;DHT22;9051;51.548;14.348;2023-02-01T08:01:39;5.00;99.90
17851;DHT22;9051;51.548;14.348;2023-02-01T08:04:11;5.00;99.90
17851;DHT22;9051;51.548;14.348;2023-02-01T08:06:43;5.00;99.90
17851;DHT22;9051;51.548;14.348;2023-02-01T08:09:15;5.00;99.90
17851;DHT22;9051;51.548;14.348;2023-02-01T08:11:47;5.00;99.90
17851;DHT22;9051;51.548;14.348;2023-02-01T08:14:19;5.00;99.90
17851;DHT22;9051;51.548;14.348;2023-02-01T08:16:53;5.00;99.90
17851;DHT22;9051;51.548;14.348;2023-02-01T08:19:25;5.00;99.90
17851;DHT22;9051;51.548;14.348;2023-02-01T08:21:57;5.00;99.90
17851;DHT22;9051;51.548;14.348;2023-02-01T08:24:30;5.00;99.90
17851;DHT22;9051;51.548;14.348;2023-02-01T08:27:02;5.10;99.90
17851;DHT22;9051;51.548;14.348;2023-02-01T08:29:34;5.00;99.90
17851;DHT22;9051;51.548;14.348;2023-02-01T08:32:08;5.00;99.90
17851;DHT22;9051;51.548;14.348;2023-02-01T08:34:40;5.10;99.90
17851;DHT22;9051;51.548;14.348;2023-02-01T08:37:12;5.20;99.90
17851;DHT22;9051;51.548;14.348;2023-02-01T08:39:44;5.20;99.90
17851;DHT22;9051;51.548;14.348;2023-02-01T08:42:17;5.20;99.90
17851;DHT22;9051;51.548;14.348;2023-02-01T08:45:08;5.20;99.90
17851;DHT22;9051;51.548;14.348;2023-02-01T08:47:41;5.30;99.90
17851;DHT22;9051;51.548;14.348;2023-02-01T08:50:13;5.20;99.90
17851;DHT22;9051;51.548;14.348;2023-02-01T08:52:46;5.20;99.90
17851;DHT22;9051;51.548;14.348;2023-02-01T08:55:18;5.30;99.90
17851;DHT22;9051;51.548;14.348;2023-02-01T08:57:50;5.30;99.90
17851;DHT22;9051;51.548;14.348;2023-02-01T09:00:22;5.30;99.90
17851;DHT22;9051;51.548;14.348;2023-02-01T09:02:56;5.30;99.90
17851;DHT22;9051;51.548;14.348;2023-02-01T09:05:29;5.30;99.90
17851;DHT22;9051;51.548;14.348;2023-02-01T09:08:01;5.20;99.90
17851;DHT22;9051;51.548;14.348;2023-02-01T09:10:33;5.20;99.90
17851;DHT22;9051;51.548;14.348;2023-02-01T09:13:05;5.20;99.90
17851;DHT22;9051;51.548;14.348;2023-02-01T09:15:38;5.20;99.90
17851;DHT22;9051;51.548;14.348;2023-02-01T09:18:11;5.20;99.90
17851;DHT22;9051;51.548;14.348;2023-02-01T09:20:43;5.20;99.90
17851;DHT22;9051;51.548;14.348;2023-02-01T09:23:15;5.20;99.90
17851;DHT22;9051;51.548;14.348;2023-02-01T09:25:47;5.30;99.90
17851;DHT22;9051;51.548;14.348;2023-02-01T09:28:20;5.30;99.90
17851;DHT22;9051;51.548;14.348;2023-02-01T09:30:55;5.30;99.90
17851;DHT22;9051;51.548;14.348;2023-02-01T09:33:29;5.20;99.90
17851;DHT22;9051;51.548;14.348;2023-02-01T09:36:03;5.20;99.90
17851;DHT22;9051;51.548;14.348;2023-02-01T09:38:36;5.10;99.90
17851;DHT22;9051;51.548;14.348;2023-02-01T09:41:20;5.20;99.90
17851;DHT22;9051;51.548;14.348;2023-02-01T09:44:01;5.10;99.90
17851;DHT22;9051;51.548;14.348;2023-02-01T09:46:37;5.10;99.90
17851;DHT22;9051;51.548;14.348;2023-02-01T09:49:14;5.10;99.90
17851;DHT22;9051;51.548;14.348;2023-02-01T09:51:49;5.00;99.90
17851;DHT22;9051;51.548;14.348;2023-02-01T09:54:25;5.00;99.90
17851;DHT22;9051;51.548;14.348;2023-02-01T09:57:03;5.00;99.90
17851;DHT22;9051;51.548;14.348;2023-02-01T09:59:40;5.00;99.90
17851;DHT22;9051;51.548;14.348;2023-02-01T10:02:16;5.00;99.90
17851;DHT22;9051;51.548;14.348;2023-02-01T10:04:55;5.00;99.90
17851;DHT22;9051;51.548;14.348;2023-02-01T10:07:35;5.00;99.90
17851;DHT22;9051;51.548;14.348;2023-02-01T10:10:12;4.90;99.90
17851;DHT22;9051;51.548;14.348;2023-02-01T10:16:08;5.00;99.90
17851;DHT22;9051;51.548;14.348;2023-02-01T10:18:56;5.00;99.90
17851;DHT22;9051;51.548;14.348;2023-02-01T10:21:39;5.10;99.90
17851;DHT22;9051;51.548;14.348;2023-02-01T10:24:31;5.10;99.90
17851;DHT22;9051;51.548;14.348;2023-02-01T10:27:14;5.10;99.90
17851;DHT22;9051;51.548;14.348;2023-02-01T10:29:53;5.10;99.90
17851;DHT22;9051;51.548;14.348;2023-02-01T10:32:30;5.10;99.90
17851;DHT22;9051;51.548;14.348;2023-02-01T10:35:09;5.10;99.90
17851;DHT22;9051;51.548;14.348;2023-02-01T10:37:45;5.10;99.90
17851;DHT22;9051;51.548;14.348;2023-02-01T10:40:20;5.20;99.90
17851;DHT22;9051;51.548;14.348;2023-02-01T10:42:54;5.20;99.90
17851;DHT22;9051;51.548;14.348;2023-02-01T10:45:29;5.30;99.90
17851;DHT22;9051;51.548;14.348;2023-02-01T10:48:02;5.20;99.90
17851;DHT22;9051;51.548;14.348;2023-02-01T10:50:38;5.20;99.90
17851;DHT22;9051;51.548;14.348;2023-02-01T10:53:17;5.20;99.90
17851;DHT22;9051;51.548;14.348;2023-02-01T10:55:52;5.20;99.90
17851;DHT22;9051;51.548;14.348;2023-02-01T10:58:27;5.20;99.90
17851;DHT22;9051;51.548;14.348;2023-02-01T11:01:03;5.20;99.90
17851;DHT22;9051;51.548;14.348;2023-02-01T11:03:40;5.20;99.90
17851;DHT22;9051;51.548;14.348;2023-02-01T11:06:24;5.20;99.90
17851;DHT22;9051;51.548;14.348;2023-02-01T11:09:01;5.10;99.90
17851;DHT22;9051;51.548;14.348;2023-02-01T11:11:54;5.00;99.90
17851;DHT22;9051;51.548;14.348;2023-02-01T11:14:33;4.90;99.90
17851;DHT22;9051;51.548;14.348;2023-02-01T11:17:25;4.90;99.90
17851;DHT22;9051;51.548;14.348;2023-02-01T11:20:00;4.90;99.90
17851;DHT22;9051;51.548;14.348;2023-02-01T11:22:32;4.90;99.90
17851;DHT22;9051;51.548;14.348;2023-02-01T11:25:09;4.90;99.90
17851;DHT22;9051;51.548;14.348;2023-02-01T11:27:42;5.00;99.90
17851;DHT22;9051;51.548;14.348;2023-02-01T11:30:17;5.00;99.90
17851;DHT22;9051;51.548;14.348;2023-02-01T11:32:50;5.00;99.90
17851;DHT22;9051;51.548;14.348;2023-02-01T11:35:22;5.10;99.90
17851;DHT22;9051;51.548;14.348;2023-02-01T11:37:57;5.20;99.90
17851;DHT22;9051;51.548;14.348;2023-02-01T11:40:37;5.30;99.90
17851;DHT22;9051;51.548;14.348;2023-02-01T11:43:19;5.40;99.90
17851;DHT22;9051;51.548;14.348;2023-02-01T11:46:53;5.50;99.90
17851;DHT22;9051;51.548;14.348;2023-02-01T11:49:26;5.60;99.90
17851;DHT22;9051;51.548;14.348;2023-02-01T11:52:10;5.60;99.90
17851;DHT22;9051;51.548;14.348;2023-02-01T11:54:56;5.70;99.90
17851;DHT22;9051;51.548;14.348;2023-02-01T11:57:42;5.70;99.90
17851;DHT22;9051;51.548;14.348;2023-02-01T12:03:39;5.70;99.90
17851;DHT22;9051;51.548;14.348;2023-02-01T12:06:20;5.70;99.90
17851;DHT22;9051;51.548;14.348;2023-02-01T12:09:12;5.60;99.90
17851;DHT22;9051;51.548;14.348;2023-02-01T12:11:58;5.60;99.90
17851;DHT22;9051;51.548;14.348;2023-02-01T12:14:41;5.50;99.90
17851;DHT22;9051;51.548;14.348;2023-02-01T12:17:42;5.60;99.90
17851;DHT22;9051;51.548;14.348;2023-02-01T12:20:32;5.60;99.90
17851;DHT22;9051;51.548;14.348;2023-02-01T12:23:21;5.60;99.90
17851;DHT22;9051;51.548;14.348;2023-02-01T12:26:05;5.60;99.90
17851;DHT22;9051;51.548;14.348;2023-02-01T12:29:02;5.60;99.90
17851;DHT22;9051;51.548;14.348;2023-02-01T12:31:48;5.60;99.90
17851;DHT22;9051;51.548;14.348;2023-02-01T12:34:43;5.60;99.90
17851;DHT22;9051;51.548;14.348;2023-02-01T12:37:27;5.70;99.90
17851;DHT22;9051;51.548;14.348;2023-02-01T12:40:10;5.70;99.90
17851;DHT22;9051;51.548;14.348;2023-02-01T12:42:51;5.80;99.90
17851;DHT22;9051;51.548;14.348;2023-02-01T12:45:30;5.90;99.90
17851;DHT22;9051;51.548;14.348;2023-02-01T12:48:19;5.90;99.90
17851;DHT22;9051;51.548;14.348;2023-02-01T12:50:55;5.90;99.90
17851;DHT22;9051;51.548;14.348;2023-02-01T12:53:36;5.90;99.90
17851;DHT22;9051;51.548;14.348;2023-02-01T12:56:14;5.90;99.90
17851;DHT22;9051;51.548;14.348;2023-02-01T12:58:50;5.90;99.90
17851;DHT22;9051;51.548;14.348;2023-02-01T13:01:27;6.00;99.90
17851;DHT22;9051;51.548;14.348;2023-02-01T13:04:07;5.90;99.90
17851;DHT22;9051;51.548;14.348;2023-02-01T13:06:46;5.90;99.90
17851;DHT22;9051;51.548;14.348;2023-02-01T13:09:23;5.90;99.90
17851;DHT22;9051;51.548;14.348;2023-02-01T13:11:59;5.90;99.90
17851;DHT22;9051;51.548;14.348;2023-02-01T13:14:37;5.80;99.90
17851;DHT22;9051;51.548;14.348;2023-02-01T13:17:14;5.70;99.90
17851;DHT22;9051;51.548;14.348;2023-02-01T13:19:52;5.60;99.90
17851;DHT22;9051;51.548;14.348;2023-02-01T13:22:29;5.60;99.90
17851;DHT22;9051;51.548;14.348;2023-02-01T13:25:04;5.50;99.90
17851;DHT22;9051;51.548;14.348;2023-02-01T13:27:39;5.40;99.90
17851;DHT22;9051;51.548;14.348;2023-02-01T13:30:17;5.40;99.90
17851;DHT22;9051;51.548;14.348;2023-02-01T13:33:18;5.40;99.90
17851;DHT22;9051;51.548;14.348;2023-02-01T13:36:05;5.40;99.90
17851;DHT22;9051;51.548;14.348;2023-02-01T13:39:02;5.40;99.90
17851;DHT22;9051;51.548;14.348;2023-02-01T13:41:42;5.30;99.90
17851;DHT22;9051;51.548;14.348;2023-02-01T13:44:27;5.30;99.90
17851;DHT22;9051;51.548;14.348;2023-02-01T13:47:02;5.30;99.90
17851;DHT22;9051;51.548;14.348;2023-02-01T13:49:38;5.30;99.90
17851;DHT22;9051;51.548;14.348;2023-02-01T13:52:29;5.30;99.90
17851;DHT22;9051;51.548;14.348;2023-02-01T13:55:28;5.40;99.90
17851;DHT22;9051;51.548;14.348;2023-02-01T13:58:15;5.30;99.90
17851;DHT22;9051;51.548;14.348;2023-02-01T14:00:49;5.40;99.90
17851;DHT22;9051;51.548;14.348;2023-02-01T14:03:23;5.50;99.90
17851;DHT22;9051;51.548;14.348;2023-02-01T14:06:36;5.50;99.90
17851;DHT22;9051;51.548;14.348;2023-02-01T14:09:15;5.50;99.90
17851;DHT22;9051;51.548;14.348;2023-02-01T14:11:49;5.50;99.90
17851;DHT22;9051;51.548;14.348;2023-02-01T14:14:44;5.40;99.90
17851;DHT22;9051;51.548;14.348;2023-02-01T14:17:34;5.30;99.90
17851;DHT22;9051;51.548;14.348;2023-02-01T14:23:30;5.20;99.90
17851;DHT22;9051;51.548;14.348;2023-02-01T14:26:10;5.10;99.90
17851;DHT22;9051;51.548;14.348;2023-02-01T14:29:02;5.10;99.90
17851;DHT22;9051;51.548;14.348;2023-02-01T14:31:41;5.10;99.90
17851;DHT22;9051;51.548;14.348;2023-02-01T14:34:31;5.10;99.90
17851;DHT22;9051;51.548;14.348;2023-02-01T14:37:07;5.10;99.90
17851;DHT22;9051;51.548;14.348;2023-02-01T14:39:55;5.10;99.90
17851;DHT22;9051;51.548;14.348;2023-02-01T14:42:35;5.10;99.90
17851;DHT22;9051;51.548;14.348;2023-02-01T14:45:47;5.10;99.90
17851;DHT22;9051;51.548;14.348;2023-02-01T14:48:44;5.10;99.90
17851;DHT22;9051;51.548;14.348;2023-02-01T14:51:17;5.00;99.90
17851;DHT22;9051;51.548;14.348;2023-02-01T14:53:51;5.10;99.90
17851;DHT22;9051;51.548;14.348;2023-02-01T14:56:24;5.20;99.90
17851;DHT22;9051;51.548;14.348;2023-02-01T14:59:01;5.20;99.90
17851;DHT22;9051;51.548;14.348;2023-02-01T15:01:36;5.20;99.90
17851;DHT22;9051;51.548;14.348;2023-02-01T15:04:11;5.30;99.90
17851;DHT22;9051;51.548;14.348;2023-02-01T15:06:47;5.30;99.90
17851;DHT22;9051;51.548;14.348;2023-02-01T15:09:25;5.30;99.90
17851;DHT22;9051;51.548;14.348;2023-02-01T15:12:00;5.30;99.90
17851;DHT22;9051;51.548;14.348;2023-02-01T15:14:36;5.40;99.90
17851;DHT22;9051;51.548;14.348;2023-02-01T15:17:18;5.40;99.90
17851;DHT22;9051;51.548;14.348;2023-02-01T15:19:54;5.50;99.90
17851;DHT22;9051;51.548;14.348;2023-02-01T15:22:27;5.60;99.90
17851;DHT22;9051;51.548;14.348;2023-02-01T15:25:00;5.60;99.90
17851;DHT22;9051;51.548;14.348;2023-02-01T15:27:33;5.60;99.90
17851;DHT22;9051;51.548;14.348;2023-02-01T15:30:08;5.70;99.90
17851;DHT22;9051;51.548;14.348;2023-02-01T15:32:47;5.90;99.90
17851;DHT22;9051;51.548;14.348;2023-02-01T15:35:35;6.00;99.90
17851;DHT22;9051;51.548;14.348;2023-02-01T15:38:40;6.00;99.90
17851;DHT22;9051;51.548;14.348;2023-02-01T15:41:14;6.00;99.90
17851;DHT22;9051;51.548;14.348;2023-02-01T15:44:04;5.90;99.90
17851;DHT22;9051;51.548;14.348;2023-02-01T15:46:40;5.90;99.90
17851;DHT22;9051;51.548;14.348;2023-02-01T15:49:20;5.80;99.90
17851;DHT22;9051;51.548;14.348;2023-02-01T15:51:55;5.70;99.90
17851;DHT22;9051;51.548;14.348;2023-02-01T15:54:30;5.60;99.90
17851;DHT22;9051;51.548;14.348;2023-02-01T15:57:03;5.50;99.90
17851;DHT22;9051;51.548;14.348;2023-02-01T15:59:41;5.40;99.90
17851;DHT22;9051;51.548;14.348;2023-02-01T16:02:28;5.30;99.90
17851;DHT22;9051;51.548;14.348;2023-02-01T16:05:02;5.20;99.90
17851;DHT22;9051;51.548;14.348;2023-02-01T16:07:34;5.20;99.90
17851;DHT22;9051;51.548;14.348;2023-02-01T16:10:23;5.20;99.90
17851;DHT22;9051;51.548;14.348;2023-02-01T16:12:56;5.10;99.90
17851;DHT22;9051;51.548;14.348;2023-02-01T16:15:31;5.10;99.90
17851;DHT22;9051;51.548;14.348;2023-02-01T16:18:05;5.10;99.90
17851;DHT22;9051;51.548;14.348;2023-02-01T16:20:39;5.00;99.90
17851;DHT22;9051;51.548;14.348;2023-02-01T16:23:11;5.00;99.90
17851;DHT22;9051;51.548;14.348;2023-02-01T16:25:44;5.00;99.90
17851;DHT22;9051;51.548;14.348;2023-02-01T16:28:16;4.90;99.90
17851;DHT22;9051;51.548;14.348;2023-02-01T16:30:48;5.00;99.90
17851;DHT22;9051;51.548;14.348;2023-02-01T16:33:22;4.90;99.90
17851;DHT22;9051;51.548;14.348;2023-02-01T16:35:56;5.00;99.90
17851;DHT22;9051;51.548;14.348;2023-02-01T16:38:31;5.10;99.90
17851;DHT22;9051;51.548;14.348;2023-02-01T16:41:04;5.10;99.90
17851;DHT22;9051;51.548;14.348;2023-02-01T16:43:38;5.20;99.90
17851;DHT22;9051;51.548;14.348;2023-02-01T16:46:14;5.20;99.90
17851;DHT22;9051;51.548;14.348;2023-02-01T16:48:51;5.20;99.90
17851;DHT22;9051;51.548;14.348;2023-02-01T16:51:26;5.10;99.90
17851;DHT22;9051;51.548;14.348;2023-02-01T16:54:00;5.10;99.90
17851;DHT22;9051;51.548;14.348;2023-02-01T16:56:33;5.20;99.90
17851;DHT22;9051;51.548;14.348;2023-02-01T16:59:06;5.20;99.90
17851;DHT22;9051;51.548;14.348;2023-02-01T17:01:39;5.20;99.90
17851;DHT22;9051;51.548;14.348;2023-02-01T17:04:15;5.10;99.90
17851;DHT22;9051;51.548;14.348;2023-02-01T17:06:51;5.10;99.90